createdAt,value
2019-01-09T00:01:10.670Z,3.30
2019-01-09T00:03:39.141Z,3.30
2019-01-09T00:06:07.663Z,3.30
2019-01-09T00:08:36.127Z,3.30
2019-01-09T00:11:04.575Z,3.20
2019-01-09T00:13:33.012Z,3.10
2019-01-09T00:16:01.477Z,3.10
2019-01-09T00:18:29.977Z,3.00
2019-01-09T00:20:58.554Z,3.00
2019-01-09T00:23:27.242Z,3.00
2019-01-09T00:25:55.748Z,3.10
2019-01-09T00:28:24.273Z,3.10
2019-01-09T00:30:52.853Z,3.10
2019-01-09T00:33:21.318Z,3.10
2019-01-09T00:35:49.826Z,3.10
2019-01-09T00:38:18.396Z,3.10
2019-01-09T00:40:47.044Z,3.00
2019-01-09T00:43:15.572Z,3.10
2019-01-09T00:45:44.102Z,3.10
2019-01-09T00:48:12.688Z,3.00
2019-01-09T00:50:41.138Z,3.00
2019-01-09T00:53:09.773Z,2.90
2019-01-09T00:55:57.579Z,2.80
2019-01-09T00:58:26.576Z,2.80
2019-01-09T01:00:55.196Z,2.80
2019-01-09T01:03:38.837Z,2.80
2019-01-09T01:06:33.139Z,2.80
2019-01-09T01:09:13.358Z,2.80
2019-01-09T01:12:07.103Z,2.70
2019-01-09T01:15:07.503Z,2.70
2019-01-09T01:17:39.041Z,2.70
2019-01-09T01:20:13.726Z,2.70
2019-01-09T01:22:51.431Z,2.70
2019-01-09T01:25:43.446Z,2.70
2019-01-09T01:31:33.950Z,2.70
2019-01-09T01:34:25.122Z,2.70
2019-01-09T01:37:19.129Z,2.70
2019-01-09T01:40:11.313Z,2.70
2019-01-09T01:42:51.121Z,2.70
2019-01-09T01:45:52.518Z,2.70
2019-01-09T01:49:07.247Z,2.70
2019-01-09T01:51:53.614Z,2.70
2019-01-09T01:54:31.000Z,2.70
2019-01-09T01:57:38.776Z,2.70
2019-01-09T02:00:34.250Z,2.70
2019-01-09T02:03:22.430Z,2.60
2019-01-09T02:05:54.111Z,2.60
2019-01-09T02:08:40.877Z,2.60
2019-01-09T02:11:24.759Z,2.50
2019-01-09T02:14:16.820Z,2.50
2019-01-09T02:17:14.038Z,2.50
2019-01-09T02:20:12.188Z,2.50
2019-01-09T02:22:52.864Z,2.50
2019-01-09T02:25:44.997Z,2.40
2019-01-09T02:28:19.246Z,2.40
2019-01-09T02:31:14.463Z,2.50
2019-01-09T02:33:43.025Z,2.50
2019-01-09T02:36:13.583Z,2.50
2019-01-09T02:38:41.767Z,2.50
2019-01-09T02:41:10.324Z,2.50
2019-01-09T02:43:38.787Z,2.60
2019-01-09T02:46:07.249Z,2.60
2019-01-09T02:48:35.746Z,2.60
2019-01-09T02:51:04.199Z,2.60
2019-01-09T02:53:32.926Z,2.60
2019-01-09T02:56:01.372Z,2.50
2019-01-09T02:58:29.815Z,2.50
2019-01-09T03:00:58.285Z,2.40
2019-01-09T03:03:26.820Z,2.30
2019-01-09T03:05:55.361Z,2.30
2019-01-09T03:08:23.933Z,2.30
2019-01-09T03:10:52.395Z,2.30
2019-01-09T03:13:21.007Z,2.30
2019-01-09T03:16:08.934Z,2.30
2019-01-09T03:18:37.468Z,2.20
2019-01-09T03:21:06.067Z,2.20
2019-01-09T03:23:34.588Z,2.20
2019-01-09T03:26:03.235Z,2.20
2019-01-09T03:28:31.756Z,2.30
2019-01-09T03:31:00.447Z,2.30
2019-01-09T03:33:29.081Z,2.30
2019-01-09T03:35:57.550Z,2.30
2019-01-09T03:38:26.141Z,2.40
2019-01-09T03:40:54.592Z,2.40
2019-01-09T03:43:23.108Z,2.40
2019-01-09T03:45:51.610Z,2.40
2019-01-09T03:48:20.127Z,2.40
2019-01-09T03:50:48.604Z,2.40
2019-01-09T03:53:17.103Z,2.40
2019-01-09T03:55:45.555Z,2.50
2019-01-09T03:58:14.166Z,2.40
2019-01-09T04:00:42.612Z,2.40
2019-01-09T04:03:11.141Z,2.40
2019-01-09T04:05:39.857Z,2.40
2019-01-09T04:08:08.341Z,2.40
2019-01-09T04:10:56.160Z,2.30
2019-01-09T04:13:24.728Z,2.40
2019-01-09T04:15:53.217Z,2.40
2019-01-09T04:18:21.654Z,2.30
2019-01-09T04:20:50.111Z,2.30
2019-01-09T04:23:18.546Z,2.20
2019-01-09T04:25:47.004Z,2.20
2019-01-09T04:28:15.441Z,2.10
2019-01-09T04:30:44.144Z,2.10
2019-01-09T04:33:12.605Z,2.10
2019-01-09T04:35:41.043Z,2.10
2019-01-09T04:38:09.511Z,2.00
2019-01-09T04:40:37.980Z,2.00
2019-01-09T04:43:06.658Z,2.00
2019-01-09T04:45:54.452Z,1.90
2019-01-09T04:48:42.270Z,1.90
2019-01-09T04:51:10.837Z,1.90
2019-01-09T04:53:39.278Z,1.90
2019-01-09T04:56:07.734Z,1.90
2019-01-09T04:58:36.176Z,2.00
2019-01-09T05:01:04.656Z,2.00
2019-01-09T05:03:33.146Z,2.00
2019-01-09T05:06:01.581Z,2.00
2019-01-09T05:08:30.042Z,2.10
2019-01-09T05:10:58.494Z,2.10
2019-01-09T05:13:26.966Z,2.10
2019-01-09T05:15:55.398Z,2.10
2019-01-09T05:18:23.844Z,2.10
2019-01-09T05:21:11.719Z,2.10
2019-01-09T05:23:59.575Z,2.10
2019-01-09T05:26:28.031Z,2.20
2019-01-09T05:28:56.546Z,2.10
2019-01-09T05:31:25.015Z,2.00
2019-01-09T05:33:53.450Z,1.90
2019-01-09T05:36:21.891Z,2.00
2019-01-09T05:38:50.342Z,2.00
2019-01-09T05:41:18.779Z,2.10
2019-01-09T05:43:47.258Z,2.10
2019-01-09T05:46:15.717Z,2.10
2019-01-09T05:48:44.159Z,2.10
2019-01-09T05:51:12.619Z,2.20
2019-01-09T05:53:41.055Z,2.20
2019-01-09T05:56:09.517Z,2.20
2019-01-09T05:58:37.946Z,2.10
2019-01-09T06:01:06.394Z,2.20
2019-01-09T06:03:34.866Z,2.20
2019-01-09T06:06:03.322Z,2.20
2019-01-09T06:08:32.519Z,2.10
2019-01-09T06:11:00.948Z,2.10
2019-01-09T06:13:29.486Z,2.10
2019-01-09T06:15:57.998Z,2.00
2019-01-09T06:18:26.426Z,2.00
2019-01-09T06:20:54.875Z,2.10
2019-01-09T06:23:23.317Z,2.10
2019-01-09T06:25:51.789Z,2.20
2019-01-09T06:28:20.217Z,2.20
2019-01-09T06:30:48.694Z,2.20
2019-01-09T06:33:17.126Z,2.20
2019-01-09T06:35:45.593Z,2.20
2019-01-09T06:38:14.086Z,2.20
2019-01-09T06:40:44.044Z,2.20
2019-01-09T06:43:12.853Z,2.30
2019-01-09T06:45:41.333Z,2.20
2019-01-09T06:48:10.644Z,2.20
2019-01-09T06:50:42.493Z,2.20
2019-01-09T06:53:12.817Z,2.20
2019-01-09T06:55:42.059Z,2.10
2019-01-09T06:58:11.534Z,2.10
2019-01-09T07:00:41.795Z,2.10
2019-01-09T07:03:11.479Z,2.00
2019-01-09T07:05:41.792Z,2.00
2019-01-09T07:08:11.070Z,2.00
2019-01-09T07:10:39.585Z,2.00
2019-01-09T07:13:09.194Z,1.90
2019-01-09T07:15:37.717Z,2.00
2019-01-09T07:18:06.385Z,2.00
2019-01-09T07:20:35.484Z,1.90
2019-01-09T07:23:05.678Z,1.80
2019-01-09T07:25:34.930Z,1.80
2019-01-09T07:28:03.363Z,1.80
2019-01-09T07:30:31.861Z,1.80
2019-01-09T07:33:00.374Z,1.80
2019-01-09T07:35:28.834Z,1.80
2019-01-09T07:37:57.265Z,1.80
2019-01-09T07:40:45.067Z,1.80
2019-01-09T07:43:32.842Z,1.70
2019-01-09T07:46:01.315Z,1.80
2019-01-09T07:48:29.847Z,1.80
2019-01-09T07:51:17.690Z,1.80
2019-01-09T07:53:46.134Z,2.00
2019-01-09T07:56:14.642Z,1.90
2019-01-09T07:58:43.094Z,1.90
2019-01-09T08:01:11.534Z,1.90
2019-01-09T08:03:39.995Z,2.00
2019-01-09T08:06:08.436Z,1.90
2019-01-09T08:08:36.870Z,1.90
2019-01-09T08:11:07.088Z,1.90
2019-01-09T08:13:43.344Z,2.00
2019-01-09T08:16:11.808Z,2.00
2019-01-09T08:18:40.314Z,2.00
2019-01-09T08:21:08.915Z,2.00
2019-01-09T08:23:37.429Z,1.90
2019-01-09T08:26:06.008Z,1.90
2019-01-09T08:28:34.535Z,1.90
2019-01-09T08:31:03.237Z,1.90
2019-01-09T08:33:51.078Z,1.90
2019-01-09T08:36:19.553Z,1.80
2019-01-09T08:38:47.991Z,1.80
2019-01-09T08:41:16.431Z,1.90
2019-01-09T08:44:04.429Z,1.90
2019-01-09T08:46:33.015Z,1.80
2019-01-09T08:49:01.620Z,1.80
2019-01-09T08:51:30.099Z,1.70
2019-01-09T08:53:58.567Z,1.60
2019-01-09T08:56:27.079Z,1.50
2019-01-09T08:58:55.516Z,1.40
2019-01-09T09:01:24.066Z,1.40
2019-01-09T09:03:52.527Z,1.40
2019-01-09T09:06:21.051Z,1.50
2019-01-09T09:08:50.926Z,1.50
2019-01-09T09:11:19.366Z,1.60
2019-01-09T09:13:47.830Z,1.60
2019-01-09T09:16:16.276Z,1.60
2019-01-09T09:18:44.733Z,1.60
2019-01-09T09:21:13.172Z,1.60
2019-01-09T09:23:41.634Z,1.60
2019-01-09T09:26:10.314Z,1.70
2019-01-09T09:28:38.810Z,1.70
2019-01-09T09:31:07.336Z,1.70
2019-01-09T09:33:35.763Z,1.70
2019-01-09T09:36:04.576Z,1.80
2019-01-09T09:38:52.490Z,1.90
2019-01-09T09:41:20.962Z,2.00
2019-01-09T09:43:49.410Z,2.10
2019-01-09T09:46:17.939Z,2.20
2019-01-09T09:48:46.402Z,2.40
2019-01-09T09:51:14.858Z,2.30
2019-01-09T09:53:43.401Z,2.30
2019-01-09T09:56:12.095Z,2.30
2019-01-09T09:58:59.895Z,2.40
2019-01-09T10:01:28.401Z,2.40
2019-01-09T10:03:56.942Z,2.30
2019-01-09T10:06:25.463Z,2.30
2019-01-09T10:09:13.263Z,2.20
2019-01-09T10:11:45.989Z,2.30
2019-01-09T10:14:14.564Z,2.30
2019-01-09T10:16:43.010Z,2.30
2019-01-09T10:19:11.514Z,2.30
2019-01-09T10:21:40.006Z,2.40
2019-01-09T10:24:08.511Z,2.50
2019-01-09T10:26:37.021Z,2.50
2019-01-09T10:29:05.539Z,2.50
2019-01-09T10:31:33.981Z,2.50
2019-01-09T10:34:02.442Z,2.50
2019-01-09T10:36:30.893Z,2.60
2019-01-09T10:38:59.400Z,2.60
2019-01-09T10:41:27.849Z,2.70
2019-01-09T10:43:56.286Z,2.80
2019-01-09T10:46:24.822Z,2.90
2019-01-09T10:48:53.334Z,2.90
2019-01-09T10:51:21.771Z,2.90
2019-01-09T10:53:50.294Z,2.90
2019-01-09T10:56:18.929Z,2.80
2019-01-09T10:58:47.555Z,2.70
2019-01-09T11:01:15.994Z,2.60
2019-01-09T11:03:44.466Z,2.50
2019-01-09T11:06:32.263Z,2.50
2019-01-09T11:09:00.789Z,2.40
2019-01-09T11:11:29.256Z,2.20
2019-01-09T11:13:57.774Z,2.10
2019-01-09T11:16:26.240Z,1.80
2019-01-09T11:18:54.766Z,1.80
2019-01-09T11:21:23.207Z,1.80
2019-01-09T11:23:51.667Z,1.80
2019-01-09T11:26:20.105Z,1.80
2019-01-09T11:28:48.570Z,1.70
2019-01-09T11:31:17.005Z,1.80
2019-01-09T11:33:45.439Z,1.80
2019-01-09T11:36:13.916Z,2.00
2019-01-09T11:38:42.359Z,2.10
2019-01-09T11:41:10.891Z,2.10
2019-01-09T11:43:39.349Z,2.10
2019-01-09T11:46:08.001Z,2.00
2019-01-09T11:48:36.455Z,2.00
2019-01-09T11:51:05.432Z,2.00
2019-01-09T11:53:33.895Z,2.00
2019-01-09T11:56:02.347Z,2.00
2019-01-09T11:58:30.798Z,1.80
2019-01-09T12:00:59.554Z,1.70
2019-01-09T12:03:47.339Z,1.60
2019-01-09T12:06:15.805Z,1.60
2019-01-09T12:08:44.242Z,1.60
2019-01-09T12:11:12.824Z,1.60
2019-01-09T12:13:41.354Z,1.80
2019-01-09T12:16:09.794Z,2.10
2019-01-09T12:18:38.259Z,2.30
2019-01-09T12:21:16.292Z,2.50
2019-01-09T12:23:36.946Z,2.60
2019-01-09T12:26:05.411Z,2.80
2019-01-09T12:28:33.854Z,3.00
2019-01-09T12:31:02.322Z,3.20
2019-01-09T12:33:30.760Z,3.30
2019-01-09T12:35:59.270Z,3.40
2019-01-09T12:38:27.728Z,3.40
2019-01-09T12:40:56.263Z,3.40
2019-01-09T12:43:30.825Z,3.50
2019-01-09T12:45:59.274Z,3.50
2019-01-09T12:48:27.805Z,3.60
2019-01-09T12:50:56.323Z,3.60
2019-01-09T12:53:33.956Z,3.50
2019-01-09T12:55:59.939Z,3.50
2019-01-09T12:58:28.382Z,3.50
2019-01-09T13:00:56.939Z,3.40
2019-01-09T13:03:25.387Z,3.40
2019-01-09T13:05:53.910Z,3.60
2019-01-09T13:08:22.381Z,3.60
2019-01-09T13:10:50.838Z,3.60
2019-01-09T13:13:19.318Z,3.40
2019-01-09T13:15:47.758Z,3.40
2019-01-09T13:18:16.207Z,3.30
2019-01-09T13:20:44.645Z,3.20
2019-01-09T13:23:13.095Z,3.00
2019-01-09T13:25:41.612Z,2.90
2019-01-09T13:28:10.141Z,2.80
2019-01-09T13:30:38.646Z,2.80
2019-01-09T13:33:26.513Z,2.70
2019-01-09T13:35:54.958Z,2.70
2019-01-09T13:38:23.407Z,2.60
2019-01-09T13:40:51.875Z,2.50
2019-01-09T13:43:20.310Z,2.40
2019-01-09T13:45:48.834Z,2.30
2019-01-09T13:48:17.274Z,2.30
2019-01-09T13:50:45.954Z,2.40
2019-01-09T13:53:14.418Z,2.40
2019-01-09T13:55:42.961Z,2.40
2019-01-09T13:58:11.502Z,2.30
2019-01-09T14:00:39.933Z,2.10
2019-01-09T14:03:08.378Z,2.00
2019-01-09T14:05:36.826Z,1.90
2019-01-09T14:08:05.347Z,1.90
2019-01-09T14:10:34.006Z,1.90
2019-01-09T14:13:02.442Z,1.90
2019-01-09T14:15:30.919Z,1.80
2019-01-09T14:18:18.775Z,1.70
2019-01-09T14:20:47.311Z,1.80
2019-01-09T14:23:16.683Z,1.80
2019-01-09T14:25:45.122Z,1.80
2019-01-09T14:28:13.595Z,1.80
2019-01-09T14:30:42.093Z,1.80
2019-01-09T14:33:10.552Z,1.80
2019-01-09T14:35:58.774Z,1.90
2019-01-09T14:38:46.607Z,1.90
2019-01-09T14:41:15.106Z,1.90
2019-01-09T14:43:43.570Z,1.80
2019-01-09T14:46:24.131Z,1.80
2019-01-09T14:48:52.595Z,1.70
2019-01-09T14:51:21.043Z,1.60
2019-01-09T14:53:49.473Z,1.60
2019-01-09T14:56:17.926Z,1.60
2019-01-09T14:58:46.385Z,1.50
2019-01-09T15:01:14.846Z,1.60
2019-01-09T15:03:43.334Z,1.60
2019-01-09T15:06:11.882Z,1.60
2019-01-09T15:08:40.383Z,1.60
2019-01-09T15:11:08.901Z,1.50
2019-01-09T15:13:56.702Z,1.50
2019-01-09T15:16:25.139Z,1.50
2019-01-09T15:18:53.702Z,1.40
2019-01-09T15:21:41.647Z,1.40
2019-01-09T15:24:10.120Z,1.50
2019-01-09T15:26:38.634Z,1.40
2019-01-09T15:29:07.054Z,1.40
2019-01-09T15:31:35.507Z,1.30
2019-01-09T15:34:03.943Z,1.40
2019-01-09T15:36:32.411Z,1.30
2019-01-09T15:39:00.854Z,1.40
2019-01-09T15:41:29.293Z,1.30
2019-01-09T15:43:57.756Z,1.30
2019-01-09T15:46:45.458Z,1.30
2019-01-09T15:49:13.943Z,1.30
2019-01-09T15:51:42.394Z,1.30
2019-01-09T15:54:10.900Z,1.30
2019-01-09T15:56:39.361Z,1.30
2019-01-09T15:59:08.964Z,1.30
2019-01-09T16:01:37.574Z,1.30
2019-01-09T16:04:06.145Z,1.30
2019-01-09T16:06:34.712Z,1.30
2019-01-09T16:09:22.550Z,1.40
2019-01-09T16:11:51.087Z,1.40
2019-01-09T16:14:19.603Z,1.20
2019-01-09T16:16:48.048Z,1.20
2019-01-09T16:19:16.507Z,1.20
2019-01-09T16:21:45.049Z,1.10
2019-01-09T16:24:13.551Z,1.20
2019-01-09T16:26:42.024Z,1.20
2019-01-09T16:29:10.589Z,1.20
2019-01-09T16:31:39.042Z,1.10
2019-01-09T16:34:07.497Z,1.00
2019-01-09T16:36:36.011Z,1.00
2019-01-09T16:39:07.151Z,1.00
2019-01-09T16:41:35.666Z,1.00
2019-01-09T16:44:04.269Z,0.90
2019-01-09T16:46:32.729Z,0.80
2019-01-09T16:49:01.253Z,0.80
2019-01-09T16:51:29.737Z,0.80
2019-01-09T16:53:58.251Z,0.80
2019-01-09T16:56:26.772Z,0.80
2019-01-09T16:58:55.320Z,0.90
2019-01-09T17:01:23.893Z,0.90
2019-01-09T17:03:52.434Z,0.80
2019-01-09T17:06:20.959Z,0.80
2019-01-09T17:08:49.606Z,0.90
2019-01-09T17:11:18.146Z,0.90
2019-01-09T17:13:46.726Z,0.80
2019-01-09T17:16:15.471Z,0.80
2019-01-09T17:18:43.985Z,0.80
2019-01-09T17:21:12.505Z,0.80
2019-01-09T17:23:41.327Z,0.80
2019-01-09T17:26:09.760Z,0.80
2019-01-09T17:28:38.289Z,0.70
2019-01-09T17:31:06.935Z,0.80
2019-01-09T17:33:35.511Z,0.80
2019-01-09T17:36:05.438Z,0.80
2019-01-09T17:38:33.923Z,0.80
2019-01-09T17:41:02.442Z,0.70
2019-01-09T17:43:50.323Z,0.70
2019-01-09T17:46:18.771Z,0.60
2019-01-09T17:48:47.286Z,0.60
2019-01-09T17:51:15.742Z,0.60
2019-01-09T17:53:44.197Z,0.60
2019-01-09T17:56:12.665Z,0.60
2019-01-09T17:58:41.109Z,0.50
2019-01-09T18:01:09.640Z,0.50
2019-01-09T18:03:38.172Z,0.50
2019-01-09T18:06:06.746Z,0.50
2019-01-09T18:08:54.683Z,0.50
2019-01-09T18:11:23.291Z,0.50
2019-01-09T18:13:51.814Z,0.50
2019-01-09T18:16:20.274Z,0.50
2019-01-09T18:18:48.864Z,0.40
2019-01-09T18:21:17.387Z,0.50
2019-01-09T18:23:45.899Z,0.50
2019-01-09T18:26:14.418Z,0.40
2019-01-09T18:28:42.954Z,0.40
2019-01-09T18:31:38.196Z,0.40
2019-01-09T18:34:26.087Z,0.40
2019-01-09T18:37:25.170Z,0.40
2019-01-09T18:40:04.615Z,0.40
2019-01-09T18:42:41.869Z,0.40
2019-01-09T18:45:16.236Z,0.40
2019-01-09T18:48:04.443Z,0.30
2019-01-09T18:51:03.032Z,0.40
2019-01-09T18:53:32.018Z,0.40
2019-01-09T18:56:01.989Z,0.40
2019-01-09T18:58:30.519Z,0.40
2019-01-09T19:00:59.199Z,0.40
2019-01-09T19:03:27.706Z,0.40
2019-01-09T19:05:56.526Z,0.30
2019-01-09T19:08:24.992Z,0.30
2019-01-09T19:10:53.511Z,0.40
2019-01-09T19:13:21.975Z,0.40
2019-01-09T19:15:50.450Z,0.40
2019-01-09T19:18:19.685Z,0.40
2019-01-09T19:20:48.290Z,0.40
2019-01-09T19:23:16.797Z,0.50
2019-01-09T19:25:45.333Z,0.50
2019-01-09T19:28:13.847Z,0.40
2019-01-09T19:30:42.739Z,0.50
2019-01-09T19:33:11.262Z,0.40
2019-01-09T19:35:39.774Z,0.40
2019-01-09T19:38:08.306Z,0.40
2019-01-09T19:40:36.753Z,0.40
2019-01-09T19:43:05.531Z,0.50
2019-01-09T19:45:34.154Z,0.50
2019-01-09T19:48:02.599Z,0.50
2019-01-09T19:50:31.122Z,0.60
2019-01-09T19:52:59.638Z,0.60
2019-01-09T19:55:28.096Z,0.60
2019-01-09T19:57:56.624Z,0.60
2019-01-09T20:00:25.630Z,0.60
2019-01-09T20:02:54.460Z,0.50
2019-01-09T20:05:23.308Z,0.50
2019-01-09T20:07:52.138Z,0.60
2019-01-09T20:10:23.239Z,0.60
2019-01-09T20:12:51.743Z,0.60
2019-01-09T20:15:20.652Z,0.60
2019-01-09T20:17:49.233Z,0.50
2019-01-09T20:20:19.310Z,0.60
2019-01-09T20:22:49.135Z,0.60
2019-01-09T20:25:17.925Z,0.60
2019-01-09T20:27:46.834Z,0.60
2019-01-09T20:30:19.544Z,0.60
2019-01-09T20:32:48.196Z,0.60
2019-01-09T20:35:16.886Z,0.60
2019-01-09T20:37:45.545Z,0.50
2019-01-09T20:40:33.411Z,0.50
2019-01-09T20:43:01.990Z,0.50
2019-01-09T20:45:30.618Z,0.60
2019-01-09T20:47:59.291Z,0.60
2019-01-09T20:50:29.144Z,0.60
2019-01-09T20:52:57.854Z,0.50
2019-01-09T20:55:26.410Z,0.60
2019-01-09T20:57:55.043Z,0.60
2019-01-09T21:00:26.105Z,0.60
2019-01-09T21:02:56.460Z,0.60
2019-01-09T21:05:27.953Z,0.60
2019-01-09T21:07:56.659Z,0.60
2019-01-09T21:10:25.237Z,0.60
2019-01-09T21:12:53.774Z,0.60
2019-01-09T21:15:22.351Z,0.60
2019-01-09T21:18:11.672Z,0.60
2019-01-09T21:20:40.179Z,0.60
2019-01-09T21:23:08.700Z,0.60
2019-01-09T21:25:37.141Z,0.60
2019-01-09T21:28:06.034Z,0.60
2019-01-09T21:30:34.732Z,0.60
2019-01-09T21:33:03.165Z,0.60
2019-01-09T21:35:31.732Z,0.60
2019-01-09T21:38:19.514Z,0.60
2019-01-09T21:40:48.137Z,0.70
2019-01-09T21:43:16.582Z,0.60
2019-01-09T21:45:45.022Z,0.60
2019-01-09T21:48:16.288Z,0.60
2019-01-09T21:50:44.714Z,0.70
2019-01-09T21:53:13.315Z,0.70
2019-01-09T21:55:41.757Z,0.70
2019-01-09T21:58:10.217Z,0.60
2019-01-09T22:00:38.742Z,0.70
2019-01-09T22:03:07.185Z,0.60
2019-01-09T22:05:35.800Z,0.60
2019-01-09T22:08:04.492Z,0.60
2019-01-09T22:10:54.647Z,0.60
2019-01-09T22:13:23.095Z,0.50
2019-01-09T22:16:10.967Z,0.50
2019-01-09T22:18:39.469Z,0.50
2019-01-09T22:21:07.999Z,0.50
2019-01-09T22:23:36.542Z,0.50
2019-01-09T22:26:05.134Z,0.50
2019-01-09T22:28:33.622Z,0.50
2019-01-09T22:31:02.134Z,0.50
2019-01-09T22:33:30.650Z,0.50
2019-01-09T22:35:59.176Z,0.50
2019-01-09T22:38:27.681Z,0.40
2019-01-09T22:40:56.374Z,0.40
2019-01-09T22:43:55.787Z,0.40
2019-01-09T22:46:14.438Z,0.50
2019-01-09T22:48:42.881Z,0.40
2019-01-09T22:51:11.970Z,0.40
2019-01-09T22:53:40.539Z,0.40
2019-01-09T22:56:09.128Z,0.30
2019-01-09T22:58:57.029Z,0.40
2019-01-09T23:01:25.889Z,0.30
2019-01-09T23:03:54.566Z,0.30
2019-01-09T23:06:42.569Z,0.30
2019-01-09T23:09:31.866Z,0.40
2019-01-09T23:12:00.604Z,0.30
2019-01-09T23:14:29.126Z,0.30
2019-01-09T23:16:57.636Z,0.30
2019-01-09T23:19:26.185Z,0.30
2019-01-09T23:21:54.927Z,0.40
2019-01-09T23:24:23.467Z,0.40
2019-01-09T23:26:51.912Z,0.40
2019-01-09T23:29:20.387Z,0.40
2019-01-09T23:31:48.986Z,0.30
2019-01-09T23:34:17.600Z,0.40
2019-01-09T23:36:46.135Z,0.40
2019-01-09T23:39:14.834Z,0.40
2019-01-09T23:41:43.298Z,0.30
2019-01-09T23:44:11.856Z,0.30
2019-01-09T23:46:40.309Z,0.30
2019-01-09T23:49:08.969Z,0.20
2019-01-09T23:51:56.750Z,0.20
2019-01-09T23:54:25.290Z,0.20
2019-01-09T23:56:53.732Z,0.20
2019-01-09T23:59:22.167Z,0.20
